createdAt,value
2023-03-30T00:08:51.760Z,1.4
2023-03-30T00:15:16.564Z,1.4
2023-03-30T00:18:52.475Z,1.6
2023-03-30T00:28:53.485Z,1.8
2023-03-30T00:38:54.403Z,1.8
2023-03-30T00:49:09.686Z,1.5
2023-03-30T00:58:56.228Z,1.5
2023-03-30T01:08:57.184Z,1.7
2023-03-30T01:13:03.563Z,1.7
2023-03-30T01:16:48.782Z,1.7
2023-03-30T01:18:58.070Z,1.4
2023-03-30T01:28:58.916Z,1.8
2023-03-30T01:38:59.781Z,1.5
2023-03-30T01:47:41.895Z,1.5
2023-03-30T01:49:00.638Z,1.9
2023-03-30T01:59:01.416Z,1.6
2023-03-30T02:08:13.978Z,1.6
2023-03-30T02:19:03.058Z,2.2
2023-03-30T02:20:21.399Z,2.2
2023-03-30T02:29:03.877Z,2.4
2023-03-30T02:39:04.619Z,2
2023-03-30T02:49:05.519Z,1.9
2023-03-30T02:55:20.315Z,1.9
2023-03-30T02:59:06.356Z,1.9
2023-03-30T03:02:52.464Z,1.9
2023-03-30T03:09:07.216Z,1.7
2023-03-30T03:16:35.190Z,1.7
2023-03-30T03:19:09.778Z,1.4
2023-03-30T03:29:08.841Z,1.7
2023-03-30T03:33:20.013Z,1.7
2023-03-30T03:39:09.630Z,1.3
2023-03-30T03:49:10.329Z,1.6
2023-03-30T03:59:11.144Z,1.6
2023-03-30T04:09:11.900Z,1.8
2023-03-30T04:12:48.738Z,1.8
2023-03-30T04:19:12.799Z,1.8
2023-03-30T04:28:48.186Z,1.8
2023-03-30T04:29:13.439Z,1.9
2023-03-30T04:37:06.081Z,1.9
2023-03-30T04:39:14.146Z,1.8
2023-03-30T04:46:55.734Z,1.8
2023-03-30T04:49:14.927Z,1.9
2023-03-30T04:59:15.637Z,1.6
2023-03-30T05:09:16.520Z,1.6
2023-03-30T05:19:17.360Z,1.9
2023-03-30T05:24:26.056Z,1.9
2023-03-30T05:29:17.992Z,1.9
2023-03-30T05:36:54.068Z,1.9
2023-03-30T05:38:54.374Z,1.9
2023-03-30T05:39:18.818Z,1.5
2023-03-30T05:48:59.648Z,1.5
2023-03-30T05:49:19.559Z,1.9
2023-03-30T05:59:20.328Z,1.5
2023-03-30T06:01:31.623Z,1.5
2023-03-30T06:02:45.401Z,1.5
2023-03-30T06:09:21.096Z,1.5
2023-03-30T06:19:40.500Z,1.7
2023-03-30T06:21:14.661Z,1.7
2023-03-30T06:29:22.499Z,1.5
2023-03-30T06:39:23.206Z,1.9
2023-03-30T06:48:47.512Z,1.9
2023-03-30T06:49:23.888Z,2.7
2023-03-30T06:59:24.758Z,3.5
2023-03-30T07:01:04.811Z,3.5
2023-03-30T07:05:39.917Z,3.5
2023-03-30T07:09:25.390Z,3.6
2023-03-30T07:19:26.134Z,4.5
2023-03-30T07:29:26.872Z,4.2
2023-03-30T07:39:27.572Z,5.3
2023-03-30T07:47:46.422Z,5.3
2023-03-30T07:49:28.228Z,5.9
2023-03-30T07:59:28.927Z,6.6
2023-03-30T08:09:29.614Z,6.7
2023-03-30T08:19:30.494Z,6.5
2023-03-30T08:29:31.309Z,7.3
2023-03-30T08:31:15.681Z,7.3
2023-03-30T08:39:31.950Z,6.7
2023-03-30T08:49:32.795Z,6.5
2023-03-30T08:54:59.497Z,6.5
2023-03-30T08:59:33.507Z,6.1
2023-03-30T09:09:34.210Z,6.3
2023-03-30T09:19:35.001Z,6.3
2023-03-30T09:29:35.676Z,6.8
2023-03-30T09:36:06.519Z,6.8
2023-03-30T09:39:36.437Z,6.8
2023-03-30T09:50:11.509Z,5.8
2023-03-30T09:58:21.619Z,5.8
2023-03-30T09:59:37.681Z,5.9
2023-03-30T10:04:44.612Z,5.9
2023-03-30T10:08:06.150Z,5.9
2023-03-30T10:09:38.353Z,5.4
2023-03-30T10:19:44.689Z,5.2
2023-03-30T10:23:59.681Z,5.2
2023-03-30T10:25:21.832Z,5.2
2023-03-30T10:29:39.680Z,5.7
2023-03-30T10:35:18.229Z,5.7
2023-03-30T10:39:40.370Z,5.1
2023-03-30T10:46:18.610Z,5.1
2023-03-30T10:49:41.073Z,5.6
2023-03-30T10:54:18.990Z,5.6
2023-03-30T10:59:41.959Z,4.9
2023-03-30T11:07:12.436Z,4.9
2023-03-30T11:09:42.611Z,3.5
2023-03-30T11:19:43.466Z,3.1
2023-03-30T11:28:52.365Z,3.1
2023-03-30T11:29:44.143Z,2.9
2023-03-30T11:37:02.467Z,2.9
2023-03-30T11:39:41.102Z,2.9
2023-03-30T11:49:45.858Z,2.3
2023-03-30T11:52:07.169Z,2.3
2023-03-30T11:53:19.864Z,2.3
2023-03-30T11:55:03.340Z,2.3
2023-03-30T11:56:19.125Z,2.3
2023-03-30T11:57:32.341Z,2.3
2023-03-30T11:59:46.795Z,2.3
2023-03-30T12:03:10.561Z,2.3
2023-03-30T12:05:14.809Z,2.3
2023-03-30T12:07:49.991Z,2.3
2023-03-30T12:09:47.506Z,2.3
2023-03-30T12:14:28.209Z,2.3
2023-03-30T12:17:13.611Z,2.3
2023-03-30T12:19:55.926Z,2.4
2023-03-30T12:30:00.581Z,2.4
2023-03-30T12:30:02.223Z,2.3
2023-03-30T12:39:50.092Z,2.1
2023-03-30T12:49:51.032Z,2.4
2023-03-30T12:53:47.742Z,2.4
2023-03-30T12:56:40.266Z,2.4
2023-03-30T12:59:51.960Z,2.8
2023-03-30T13:09:53.053Z,2.8
2023-03-30T13:19:54.004Z,2.7
2023-03-30T13:29:55.033Z,2.4
2023-03-30T13:39:56.035Z,2.3
2023-03-30T13:45:42.913Z,2.3
2023-03-30T13:49:57.131Z,2.5
2023-03-30T13:51:46.792Z,2.5
2023-03-30T13:53:16.865Z,2.5
2023-03-30T13:59:58.095Z,3.2
2023-03-30T14:09:59.160Z,2.6
2023-03-30T14:20:00.187Z,2.6
2023-03-30T14:30:01.308Z,2.5
2023-03-30T14:37:04.683Z,2.5
2023-03-30T14:40:02.387Z,2.5
2023-03-30T14:50:03.480Z,2.5
2023-03-30T15:00:04.635Z,2.9
2023-03-30T15:09:38.294Z,2.9
2023-03-30T15:10:05.654Z,3.3
2023-03-30T15:20:06.810Z,3.2
2023-03-30T15:30:07.953Z,2.5
2023-03-30T15:40:09.092Z,3.1
2023-03-30T15:50:10.319Z,2.9
2023-03-30T16:00:11.776Z,3.3
2023-03-30T16:10:12.535Z,2.7
2023-03-30T16:20:13.729Z,2.7
2023-03-30T16:29:15.321Z,2.7
2023-03-30T16:30:14.896Z,2.6
2023-03-30T16:31:03.998Z,2.6
2023-03-30T16:40:16.232Z,2.6
2023-03-30T16:45:33.927Z,2.6
2023-03-30T16:48:30.852Z,2.6
2023-03-30T16:50:17.406Z,2.8
2023-03-30T17:00:18.599Z,2.9
2023-03-30T17:10:19.728Z,2.5
2023-03-30T17:20:20.911Z,2.3
2023-03-30T17:30:22.063Z,2.5
2023-03-30T17:40:23.312Z,2.4
2023-03-30T17:50:24.545Z,2
2023-03-30T18:00:25.689Z,2.6
2023-03-30T18:07:01.828Z,2.6
2023-03-30T18:10:26.951Z,2.7
2023-03-30T18:12:34.836Z,2.7
2023-03-30T18:20:28.091Z,2.9
2023-03-30T18:30:29.213Z,3.3
2023-03-30T18:40:32.659Z,2.7
2023-03-30T18:49:55.942Z,2.7
2023-03-30T18:50:31.686Z,2.6
2023-03-30T19:00:32.952Z,2.7
2023-03-30T19:10:34.342Z,2.6
2023-03-30T19:15:55.716Z,2.6
2023-03-30T19:20:35.573Z,2.5
2023-03-30T19:30:39.184Z,3.4
2023-03-30T19:40:38.238Z,2.6
2023-03-30T19:50:39.572Z,3
2023-03-30T19:54:18.232Z,3
2023-03-30T19:56:03.575Z,3
2023-03-30T20:00:40.853Z,3.3
2023-03-30T20:10:42.128Z,3.5
2023-03-30T20:15:45.286Z,3.5
2023-03-30T20:16:58.556Z,3.5
2023-03-30T20:20:43.436Z,3.1
2023-03-30T20:30:44.750Z,3.3
2023-03-30T20:34:38.155Z,3.3
2023-03-30T20:40:46.090Z,2.5
2023-03-30T20:50:47.508Z,3.7
2023-03-30T20:59:17.399Z,3.7
2023-03-30T21:00:48.925Z,1.7
2023-03-30T21:02:06.744Z,1.7
2023-03-30T21:10:50.274Z,1.3
2023-03-30T21:19:00.658Z,1.3
2023-03-30T21:20:51.728Z,1.6
2023-03-30T21:28:04.751Z,1.6
2023-03-30T21:30:28.230Z,1.6
2023-03-30T21:40:54.468Z,1.6
2023-03-30T21:44:41.098Z,1.6
2023-03-30T21:50:55.784Z,1.7
2023-03-30T22:01:08.812Z,1.8
2023-03-30T22:10:58.230Z,1.9
2023-03-30T22:18:55.258Z,1.9
2023-03-30T22:20:59.436Z,1.5
2023-03-30T22:31:00.735Z,1.7
2023-03-30T22:41:04.780Z,1.8
2023-03-30T22:51:03.343Z,2
2023-03-30T23:01:04.358Z,1.5
2023-03-30T23:11:05.453Z,1.8
2023-03-30T23:18:40.843Z,1.8
2023-03-30T23:21:07.293Z,1.5
2023-03-30T23:25:15.482Z,1.5
2023-03-30T23:28:49.024Z,1.5
2023-03-30T23:31:07.915Z,1.7
2023-03-30T23:35:46.762Z,1.7
2023-03-30T23:41:08.879Z,1.7
2023-03-30T23:51:09.950Z,1.6
